Time;durP1;ratioP1;P1;durP2;ratioP2;P2;SDS_P1;SDS_P2;PMS_P1;PMS_P2;Temp;Humidity;BMP_temperature;BMP_pressure;BME280_temperature;BME280_humidity;BME280_pressure;Samples;Min_cycle;Max_cycle;Signal;HPM_P1;HPM_P2
2022/08/30 00:01:05;;;;;;;2.80;1.80;;;;;;;18.51;59.89;101984.28;4923892;28;123229;-80
2022/08/30 00:03:35;;;;;;;4.07;1.93;;;;;;;18.50;59.95;101984.75;4924248;28;121384;-79
2022/08/30 00:06:02;;;;;;;3.50;2.00;;;;;;;18.48;59.89;101981.69;4946702;28;120406;-80
2022/08/30 00:08:28;;;;;;;3.07;1.97;;;;;;;18.47;60.19;101977.38;4923625;28;122755;-80
2022/08/30 00:10:54;;;;;;;3.53;2.00;;;;;;;18.49;59.61;101983.22;4942695;28;120209;-80
2022/08/30 00:13:21;;;;;;;3.17;2.00;;;;;;;18.47;60.01;101980.16;4927297;28;122184;-79
2022/08/30 00:15:47;;;;;;;4.55;1.80;;;;;;;18.45;59.68;101985.38;4926866;28;120041;-79
2022/08/30 00:18:14;;;;;;;4.38;2.30;;;;;;;18.42;59.77;101976.75;4925224;28;120086;-80
2022/08/30 00:20:41;;;;;;;3.70;1.97;;;;;;;18.42;59.60;101979.53;4943711;28;119912;-79
2022/08/30 00:23:06;;;;;;;7.05;2.20;;;;;;;18.38;59.95;101978.19;4927699;28;122731;-79
2022/08/30 00:25:32;;;;;;;3.60;1.80;;;;;;;18.38;59.57;101978.19;4942787;28;120185;-79
2022/08/30 00:27:58;;;;;;;3.83;2.00;;;;;;;18.34;59.25;101981.16;4948060;28;120546;-80
2022/08/30 00:30:24;;;;;;;3.93;2.20;;;;;;;18.32;59.94;101983.63;4925727;28;120161;-79
2022/08/30 00:32:50;;;;;;;4.22;1.80;;;;;;;18.31;60.71;101987.66;4927191;28;119971;-79
2022/08/30 00:35:19;;;;;;;3.42;1.80;;;;;;;18.29;60.66;101981.03;4910348;28;123517;-79
2022/08/30 00:37:45;;;;;;;4.38;1.90;;;;;;;18.32;60.99;101980.84;4942015;28;120144;-79
2022/08/30 00:40:14;;;;;;;4.20;1.77;;;;;;;18.32;60.88;101983.63;4937977;28;122089;-79
2022/08/30 00:42:41;;;;;;;3.88;1.90;;;;;;;18.34;61.13;101983.91;4940712;28;122957;-79
2022/08/30 00:45:17;;;;;;;3.80;1.80;;;;;;;18.36;61.28;101983.44;4942890;28;120292;-79
2022/08/30 00:47:43;;;;;;;3.40;1.65;;;;;;;18.34;61.22;101981.16;4940224;28;120572;-80
2022/08/30 00:50:11;;;;;;;5.00;2.10;;;;;;;18.36;61.63;101987.00;4944430;28;121333;-80
2022/08/30 00:52:40;;;;;;;2.78;2.00;;;;;;;18.33;61.83;101982.38;4908247;28;120615;-80
2022/08/30 00:55:06;;;;;;;3.22;1.75;;;;;;;18.35;61.60;101995.78;4926186;28;123468;-80
2022/08/30 00:57:33;;;;;;;4.70;2.03;;;;;;;18.35;61.62;101987.47;4909319;28;120416;-80
2022/08/30 00:59:59;;;;;;;3.65;2.08;;;;;;;18.40;61.56;101987.56;4908178;28;124492;-80
2022/08/30 01:02:29;;;;;;;4.00;2.20;;;;;;;18.40;61.26;101995.13;4908154;28;123929;-79
2022/08/30 01:04:56;;;;;;;5.50;2.30;;;;;;;18.41;61.77;101991.13;4943585;28;120427;-79
2022/08/30 01:07:23;;;;;;;4.82;2.10;;;;;;;18.40;61.67;101989.59;4944124;28;121372;-80
2022/08/30 01:09:49;;;;;;;3.90;2.00;;;;;;;18.41;61.27;101991.88;4941846;28;120156;-80
2022/08/30 01:12:15;;;;;;;3.83;2.10;;;;;;;18.35;61.92;101985.47;4930514;28;119789;-79
2022/08/30 01:14:40;;;;;;;3.63;2.00;;;;;;;18.39;61.89;101997.16;4908811;28;123206;-79
2022/08/30 01:17:06;;;;;;;3.47;1.87;;;;;;;18.38;61.51;101992.84;4942613;28;120424;-80
2022/08/30 01:19:53;;;;;;;4.97;2.00;;;;;;;18.37;61.62;101999.63;4941524;28;120424;-79
2022/08/30 01:22:50;;;;;;;3.60;1.85;;;;;;;18.34;61.21;102006.16;4942739;28;122236;-80
2022/08/30 01:25:22;;;;;;;4.93;2.00;;;;;;;18.33;61.79;101999.06;4942179;28;120349;-79
2022/08/30 01:28:12;;;;;;;3.60;1.70;;;;;;;18.34;61.98;101988.72;4926329;28;120638;-79
2022/08/30 01:30:43;;;;;;;3.78;1.95;;;;;;;18.34;61.68;101994.25;4926907;28;120386;-80
2022/08/30 01:33:10;;;;;;;3.88;1.92;;;;;;;18.35;61.96;101982.69;4931309;28;119972;-80
2022/08/30 01:35:52;;;;;;;3.88;1.90;;;;;;;18.41;62.03;101991.88;4943435;28;122003;-80
2022/08/30 01:38:20;;;;;;;3.03;2.00;;;;;;;18.43;62.30;101996.97;4925578;28;120201;-80
2022/08/30 01:40:47;;;;;;;3.63;1.70;;;;;;;18.48;62.17;101998.34;4907756;28;121313;-80
2022/08/30 01:43:14;;;;;;;3.05;2.03;;;;;;;18.50;62.03;102001.41;4942253;28;123608;-80
2022/08/30 01:45:40;;;;;;;4.47;1.90;;;;;;;18.52;62.32;102002.47;4926014;28;120606;-80
2022/08/30 01:48:07;;;;;;;3.55;1.80;;;;;;;18.55;61.77;102007.09;4910700;28;122047;-79
2022/08/30 01:50:33;;;;;;;4.43;1.98;;;;;;;18.56;62.07;102005.84;4922620;28;122907;-79
2022/08/30 01:52:59;;;;;;;4.47;1.98;;;;;;;18.59;61.68;102006.91;4941307;28;120601;-79
2022/08/30 01:55:28;;;;;;;4.63;2.00;;;;;;;18.62;62.00;102008.72;4945088;28;120446;-79
2022/08/30 01:57:53;;;;;;;3.90;2.00;;;;;;;18.61;61.83;102013.53;4942689;28;120092;-79
2022/08/30 02:00:19;;;;;;;3.57;1.77;;;;;;;18.60;62.21;102000.88;4941040;28;121398;-79
2022/08/30 02:02:45;;;;;;;4.17;2.10;;;;;;;18.70;62.07;102013.50;4924334;28;123115;-79
2022/08/30 02:05:10;;;;;;;4.63;2.00;;;;;;;18.66;61.84;102001.00;4908134;28;120128;-79
2022/08/30 02:07:36;;;;;;;3.73;1.80;;;;;;;18.76;61.77;102010.06;4942601;28;120354;-79
2022/08/30 02:10:03;;;;;;;3.97;2.00;;;;;;;18.73;61.74;102000.66;4922254;28;123078;-79
2022/08/30 02:12:31;;;;;;;3.50;2.00;;;;;;;18.72;61.64;102007.47;4941340;28;120100;-79
2022/08/30 02:14:57;;;;;;;3.80;2.20;;;;;;;18.75;61.27;102002.97;4924398;28;122365;-79
2022/08/30 02:17:25;;;;;;;3.85;2.00;;;;;;;18.73;61.59;102009.00;4945491;28;123642;-79
2022/08/30 02:19:51;;;;;;;3.38;2.10;;;;;;;18.75;61.27;102012.06;4924782;28;121813;-80
2022/08/30 02:22:17;;;;;;;3.72;2.13;;;;;;;18.72;61.65;102013.03;4924823;28;124763;-79
2022/08/30 02:24:43;;;;;;;4.28;2.40;;;;;;;18.68;61.27;102013.19;4924122;28;120755;-79
2022/08/30 02:27:08;;;;;;;4.10;2.30;;;;;;;18.69;61.51;102022.28;4924286;28;121699;-80
2022/08/30 02:29:34;;;;;;;4.50;2.28;;;;;;;18.74;61.76;102037.56;4937566;28;121815;-81
2022/08/30 02:32:00;;;;;;;3.58;2.15;;;;;;;18.70;61.76;102019.06;4922893;28;120433;-80
2022/08/30 02:34:26;;;;;;;4.55;2.28;;;;;;;18.75;61.88;102022.41;4940224;28;120570;-79
2022/08/30 02:36:51;;;;;;;3.45;2.10;;;;;;;18.74;61.97;102020.88;4940581;28;120786;-80
2022/08/30 02:39:17;;;;;;;3.55;2.28;;;;;;;18.77;61.68;102017.16;4942262;28;122625;-79
2022/08/30 02:41:42;;;;;;;3.83;2.13;;;;;;;18.75;61.65;102012.06;4920455;28;122411;-79
2022/08/30 02:44:09;;;;;;;3.65;2.10;;;;;;;18.79;61.41;102018.22;4940910;28;120172;-79
2022/08/30 02:46:36;;;;;;;2.92;2.20;;;;;;;18.83;61.77;102018.03;4940399;28;122077;-79
2022/08/30 02:49:28;;;;;;;4.15;2.17;;;;;;;18.79;61.38;102009.88;4941544;28;120689;-80
2022/08/30 02:51:54;;;;;;;4.30;2.30;;;;;;;18.78;60.83;102015.91;4939311;28;120045;-79
2022/08/30 02:54:19;;;;;;;4.78;2.40;;;;;;;18.74;60.94;102018.88;4919920;28;121765;-78
2022/08/30 02:56:46;;;;;;;3.92;2.40;;;;;;;18.70;62.22;102005.16;4924586;28;123000;-79
2022/08/30 02:59:13;;;;;;;4.28;2.30;;;;;;;18.75;61.59;102016.88;4925957;28;121244;-78
2022/08/30 03:01:41;;;;;;;4.22;2.20;;;;;;;18.69;60.82;102011.16;4911574;28;120383;-79
2022/08/30 03:04:07;;;;;;;4.25;2.30;;;;;;;18.64;61.30;102009.06;4941077;28;120665;-79
2022/08/30 03:06:32;;;;;;;3.25;2.28;;;;;;;18.60;62.04;102009.22;4925365;28;122137;-80
2022/08/30 03:08:58;;;;;;;4.05;2.33;;;;;;;18.58;62.06;102008.16;4940985;28;120263;-79
2022/08/30 03:11:24;;;;;;;4.75;2.40;;;;;;;18.59;61.81;102007.69;4939108;28;119925;-80
2022/08/30 03:13:50;;;;;;;4.70;2.40;;;;;;;18.50;62.57;101996.63;4943145;28;119867;-79
2022/08/30 03:16:15;;;;;;;3.65;2.30;;;;;;;18.54;62.92;102002.00;4924551;28;123480;-79
2022/08/30 03:18:50;;;;;;;4.13;2.40;;;;;;;18.52;62.97;102005.25;4940797;28;120010;-79
2022/08/30 03:21:16;;;;;;;3.50;2.10;;;;;;;18.51;62.33;102006.50;4908162;28;121930;-80
2022/08/30 03:23:42;;;;;;;3.55;2.20;;;;;;;18.51;61.83;102005.75;4926446;28;122989;-80
2022/08/30 03:26:11;;;;;;;4.75;2.40;;;;;;;18.47;62.88;102007.94;4922716;28;122252;-79
2022/08/30 03:28:41;;;;;;;4.68;2.22;;;;;;;18.46;63.34;102003.63;4923628;28;120658;-79
2022/08/30 03:31:07;;;;;;;5.78;2.30;;;;;;;18.48;62.96;102012.25;4910958;28;121915;-79
2022/08/30 03:33:34;;;;;;;3.55;2.30;;;;;;;18.52;63.24;102010.06;4944692;28;120262;-79
2022/08/30 03:35:59;;;;;;;4.85;2.30;;;;;;;18.55;63.37;102009.09;4927350;28;122924;-79
2022/08/30 03:38:42;;;;;;;5.10;2.45;;;;;;;18.54;62.64;102008.34;4945131;28;120054;-79
2022/08/30 03:41:08;;;;;;;4.72;2.42;;;;;;;18.53;62.72;102006.03;4927870;28;122149;-79
2022/08/30 03:43:34;;;;;;;3.85;2.35;;;;;;;18.52;62.80;102007.28;4931842;28;122743;-79
2022/08/30 03:46:00;;;;;;;4.70;2.67;;;;;;;18.50;63.25;102004.97;4927059;28;121586;-78
2022/08/30 03:48:27;;;;;;;4.43;2.40;;;;;;;18.52;63.38;102004.50;4945377;28;120029;-79
2022/08/30 03:50:52;;;;;;;4.97;2.33;;;;;;;18.49;62.93;102005.44;4944483;28;119906;-79
2022/08/30 03:53:18;;;;;;;4.90;2.50;;;;;;;18.49;62.68;102000.66;4942530;28;122720;-78
2022/08/30 03:55:47;;;;;;;4.28;2.50;;;;;;;18.47;63.20;102002.38;4927632;28;123310;-78
2022/08/30 03:58:12;;;;;;;6.65;2.70;;;;;;;18.42;63.32;102006.56;4944117;28;120560;-78
2022/08/30 04:00:38;;;;;;;4.88;2.45;;;;;;;18.40;64.05;101998.69;4924212;28;122115;-78
2022/08/30 04:03:04;;;;;;;4.30;2.43;;;;;;;18.43;63.41;102008.09;4944272;28;120740;-78
2022/08/30 04:05:29;;;;;;;4.47;2.40;;;;;;;18.40;63.15;102009.81;4948099;28;120359;-78
2022/08/30 04:07:55;;;;;;;4.00;2.40;;;;;;;18.41;63.28;102016.91;4943274;28;120063;-78
2022/08/30 04:10:21;;;;;;;4.57;2.63;;;;;;;18.40;63.23;102015.34;4926049;28;121263;-78
2022/08/30 04:12:47;;;;;;;3.55;2.53;;;;;;;18.40;63.75;102009.81;4944669;28;121566;-79
2022/08/30 04:15:14;;;;;;;4.70;2.67;;;;;;;18.48;63.98;102017.81;4927203;28;123035;-78
2022/08/30 04:17:40;;;;;;;4.32;2.50;;;;;;;18.47;63.55;102010.72;4943257;28;120549;-79
2022/08/30 04:20:06;;;;;;;3.55;2.80;;;;;;;18.44;63.50;102017.19;4910003;28;121835;-79
2022/08/30 04:22:32;;;;;;;5.83;2.87;;;;;;;18.46;64.29;102021.06;4942090;28;122297;-79
2022/08/30 04:24:58;;;;;;;4.50;2.55;;;;;;;18.39;63.57;102008.25;4907359;28;120441;-79
2022/08/30 04:27:27;;;;;;;5.20;2.70;;;;;;;18.39;63.74;102013.81;4929420;28;120392;-78
2022/08/30 04:29:54;;;;;;;4.70;2.92;;;;;;;18.38;64.38;102006.72;4909511;28;119966;-77
2022/08/30 04:32:20;;;;;;;6.07;3.00;;;;;;;18.39;64.14;102013.81;4926673;28;120433;-78
2022/08/30 04:34:45;;;;;;;4.67;2.80;;;;;;;18.35;63.68;102016.00;4944079;28;119921;-78
2022/08/30 04:37:15;;;;;;;5.78;2.97;;;;;;;18.30;63.35;102011.09;4942804;28;120071;-78
2022/08/30 04:39:42;;;;;;;5.43;3.13;;;;;;;18.28;64.29;102013.59;4907857;28;122091;-78
2022/08/30 04:42:10;;;;;;;4.55;2.80;;;;;;;18.24;64.33;102013.00;4925574;28;122821;-78
2022/08/30 04:44:36;;;;;;;4.35;2.80;;;;;;;18.17;64.05;102007.00;4943037;28;119628;-79
2022/08/30 04:47:01;;;;;;;4.77;2.80;;;;;;;18.21;65.29;102013.16;4944173;28;119993;-79
2022/08/30 04:49:27;;;;;;;5.83;3.23;;;;;;;18.22;64.68;102025.81;4946924;28;120296;-79
2022/08/30 04:51:52;;;;;;;5.57;2.80;;;;;;;18.24;64.50;102028.91;4925620;28;121868;-80
2022/08/30 04:54:18;;;;;;;4.50;2.57;;;;;;;18.24;64.21;102026.13;4925353;28;123089;-79
2022/08/30 04:56:44;;;;;;;5.38;2.90;;;;;;;18.19;64.57;102027.50;4942168;28;120475;-79
2022/08/30 04:59:09;;;;;;;5.65;3.20;;;;;;;18.27;65.06;102027.97;4943301;28;120479;-79
2022/08/30 05:01:35;;;;;;;6.32;2.97;;;;;;;18.26;65.40;102026.41;4925463;28;123621;-78
2022/08/30 05:04:01;;;;;;;4.50;3.17;;;;;;;18.22;64.44;102025.81;4924924;28;120014;-79
2022/08/30 05:06:48;;;;;;;5.35;2.95;;;;;;;18.28;64.95;102038.59;4912461;28;120311;-79
2022/08/30 05:09:14;;;;;;;3.70;2.83;;;;;;;18.31;65.37;102045.97;4926253;28;123114;-80
2022/08/30 05:11:42;;;;;;;4.17;2.90;;;;;;;18.36;65.13;102045.31;4930815;28;120379;-80
2022/08/30 05:14:08;;;;;;;6.40;2.70;;;;;;;18.41;65.45;102039.13;4940724;28;123720;-79
2022/08/30 05:16:33;;;;;;;4.38;3.00;;;;;;;18.51;64.94;102048.19;4925374;28;120199;-80
2022/08/30 05:18:59;;;;;;;6.50;3.15;;;;;;;18.51;64.78;102039.06;4942449;28;119844;-80
2022/08/30 05:21:26;;;;;;;5.72;2.97;;;;;;;18.60;65.74;102044.56;4943285;28;120457;-78
2022/08/30 05:23:54;;;;;;;4.57;2.80;;;;;;;18.59;65.48;102045.81;4909742;28;120562;-78
2022/08/30 05:26:23;;;;;;;5.05;3.08;;;;;;;18.67;65.87;102056.13;4924965;28;122339;-79
2022/08/30 05:28:48;;;;;;;4.93;2.90;;;;;;;18.75;65.64;102050.22;4941282;28;122679;-79
2022/08/30 05:31:22;;;;;;;5.80;2.90;;;;;;;18.82;64.88;102050.63;4943039;28;120083;-78
2022/08/30 05:33:49;;;;;;;5.57;3.17;;;;;;;18.88;65.41;102051.50;4927491;28;122120;-78
2022/08/30 05:36:17;;;;;;;5.28;3.28;;;;;;;18.96;65.76;102058.25;4924314;28;120175;-79
2022/08/30 05:38:43;;;;;;;6.70;3.53;;;;;;;19.06;65.54;102053.38;4942431;28;121588;-78
2022/08/30 05:41:09;;;;;;;4.40;3.00;;;;;;;19.13;65.49;102052.97;4921900;28;123101;-78
2022/08/30 05:43:36;;;;;;;7.05;2.97;;;;;;;19.21;64.54;102053.41;4926233;28;120400;-78
2022/08/30 05:46:09;;;;;;;5.00;2.80;;;;;;;19.25;64.95;102057.53;4942211;28;120666;-79
2022/08/30 05:48:36;;;;;;;4.68;2.85;;;;;;;19.36;65.18;102056.94;4925437;28;121413;-78
2022/08/30 05:51:23;;;;;;;4.82;2.92;;;;;;;19.49;64.83;102067.81;4942274;28;120351;-79
2022/08/30 05:53:52;;;;;;;5.57;2.90;;;;;;;19.57;65.10;102066.97;4924728;28;122883;-79
2022/08/30 05:56:23;;;;;;;5.32;3.33;;;;;;;19.66;65.00;102059.78;4924817;28;120650;-78
2022/08/30 05:58:49;;;;;;;4.77;3.27;;;;;;;19.73;65.06;102059.41;4942412;28;120152;-79
2022/08/30 06:01:27;;;;;;;6.55;3.22;;;;;;;19.80;64.93;102059.75;4925191;28;123454;-79
2022/08/30 06:03:55;;;;;;;5.07;2.80;;;;;;;19.91;64.61;102070.31;4942422;28;119781;-79
2022/08/30 06:06:22;;;;;;;5.72;2.92;;;;;;;19.97;65.25;102062.81;4908299;28;121981;-78
2022/08/30 06:08:48;;;;;;;5.45;3.00;;;;;;;20.07;64.91;102075.38;4924556;28;120626;-79
2022/08/30 06:11:18;;;;;;;5.10;2.90;;;;;;;20.10;64.45;102074.41;4925954;28;120201;-79
2022/08/30 06:13:45;;;;;;;5.07;3.07;;;;;;;20.18;65.16;102072.78;4922482;28;122834;-79
2022/08/30 06:16:12;;;;;;;4.78;2.90;;;;;;;20.28;64.70;102078.22;4945415;28;121812;-79
2022/08/30 06:18:38;;;;;;;4.90;3.05;;;;;;;20.33;64.50;102066.38;4923764;28;121804;-79
2022/08/30 06:21:04;;;;;;;5.25;2.75;;;;;;;20.37;64.37;102078.88;4905215;28;122854;-79
2022/08/30 06:23:30;;;;;;;4.60;2.63;;;;;;;20.40;64.21;102071.56;4922945;28;119674;-78
2022/08/30 06:25:56;;;;;;;4.80;2.88;;;;;;;20.46;63.94;102070.41;4922698;28;121671;-79
2022/08/30 06:28:22;;;;;;;6.10;2.80;;;;;;;20.51;64.01;102072.50;4907778;28;122691;-79
2022/08/30 06:30:47;;;;;;;5.03;2.83;;;;;;;20.59;64.19;102072.88;4942436;28;120388;-79
2022/08/30 06:33:13;;;;;;;5.97;2.70;;;;;;;20.69;63.46;102076.28;4940300;28;120179;-78
2022/08/30 06:35:38;;;;;;;4.07;2.35;;;;;;;20.75;63.73;102075.09;4936182;28;121735;-79
2022/08/30 06:38:04;;;;;;;4.78;2.50;;;;;;;20.83;63.87;102075.44;4944815;28;120137;-81
2022/08/30 06:40:30;;;;;;;4.93;2.60;;;;;;;20.94;63.73;102072.00;4921505;28;122882;-79
2022/08/30 06:42:56;;;;;;;4.43;2.28;;;;;;;21.16;64.06;102086.22;4924252;28;121807;-79
2022/08/30 06:45:24;;;;;;;6.13;2.72;;;;;;;21.33;63.52;102084.41;4937742;28;120400;-78
2022/08/30 06:47:57;;;;;;;3.75;2.10;;;;;;;21.46;62.17;102067.25;4908248;28;122597;-79
2022/08/30 06:50:24;;;;;;;5.25;2.30;;;;;;;21.65;60.69;102062.88;4922484;28;120424;-78
2022/08/30 06:52:50;;;;;;;4.28;2.20;;;;;;;21.67;60.09;102057.56;4938576;28;123282;-80
2022/08/30 06:55:33;;;;;;;3.87;1.93;;;;;;;21.75;60.10;102069.81;4925203;28;123074;-79
2022/08/30 06:58:04;;;;;;;4.18;2.10;;;;;;;21.78;59.82;102065.28;4923537;28;120410;-79
2022/08/30 07:00:29;;;;;;;3.45;1.70;;;;;;;21.85;59.14;102061.25;4943148;28;121099;-78
2022/08/30 07:02:56;;;;;;;3.43;1.80;;;;;;;21.95;59.19;102062.59;4907188;28;120221;-79
2022/08/30 07:05:22;;;;;;;3.92;1.73;;;;;;;22.05;58.98;102070.34;4943721;28;121951;-79
2022/08/30 07:07:49;;;;;;;4.63;1.90;;;;;;;22.16;59.30;102071.66;4928262;28;120282;-78
2022/08/30 07:10:18;;;;;;;3.47;1.90;;;;;;;22.25;58.99;102072.25;4938614;28;121598;-78
2022/08/30 07:12:44;;;;;;;4.23;1.90;;;;;;;22.33;58.42;102067.72;4917924;28;120621;-78
2022/08/30 07:15:10;;;;;;;3.10;1.80;;;;;;;22.41;58.07;102072.81;4905446;28;122281;-79
2022/08/30 07:20:20;;;;;;;3.13;1.47;;;;;;;22.52;56.92;102073.66;4943984;28;120530;-78
2022/08/30 07:22:46;;;;;;;4.25;1.90;;;;;;;22.57;56.44;102074.94;4948231;28;120481;-78
2022/08/30 07:25:13;;;;;;;3.25;1.73;;;;;;;22.63;56.57;102073.69;4927578;28;123007;-78
2022/08/30 07:27:40;;;;;;;3.95;1.67;;;;;;;22.67;55.55;102079.81;4926274;28;120269;-79
2022/08/30 07:30:07;;;;;;;2.60;1.60;;;;;;;22.66;55.95;102071.94;4928001;28;120652;-79
2022/08/30 07:32:33;;;;;;;2.65;1.50;;;;;;;22.61;56.04;102081.84;4930154;28;122532;-79
2022/08/30 07:34:59;;;;;;;2.58;1.30;;;;;;;22.57;54.80;102091.72;4945796;28;120249;-79
2022/08/30 07:37:24;;;;;;;4.25;1.42;;;;;;;22.54;54.21;102099.09;4943415;28;120139;-79
2022/08/30 07:39:50;;;;;;;3.83;1.48;;;;;;;22.47;53.08;102101.56;4930625;28;120468;-78
2022/08/30 07:42:16;;;;;;;2.58;1.55;;;;;;;22.42;52.98;102107.91;4926855;28;123006;-80
2022/08/30 07:44:45;;;;;;;2.65;1.30;;;;;;;22.35;53.49;102100.75;4949021;28;120740;-79
2022/08/30 07:47:22;;;;;;;3.15;1.20;;;;;;;22.30;52.82;102107.09;4927384;28;123081;-81
2022/08/30 07:49:50;;;;;;;3.03;1.40;;;;;;;22.31;53.36;102114.19;4919280;28;120506;-80
2022/08/30 07:52:16;;;;;;;3.03;1.98;;;;;;;22.30;52.96;102107.09;4942823;28;120291;-79
2022/08/30 07:54:41;;;;;;;2.33;1.35;;;;;;;22.33;52.65;102109.66;4925244;28;120663;-79
2022/08/30 07:57:07;;;;;;;2.60;1.45;;;;;;;22.31;52.32;102109.38;4911252;28;120768;-79
2022/08/30 07:59:33;;;;;;;2.70;1.20;;;;;;;22.35;52.20;102115.50;4927774;28;122046;-80
2022/08/30 08:01:58;;;;;;;1.77;1.42;;;;;;;22.37;52.77;102123.38;4924230;28;123567;-79
2022/08/30 08:04:27;;;;;;;5.97;1.67;;;;;;;22.42;52.92;102114.25;4928671;28;119993;-79
2022/08/30 08:06:53;;;;;;;2.88;1.50;;;;;;;22.44;52.92;102116.56;4904285;28;123117;-79
2022/08/30 08:09:48;;;;;;;2.88;1.48;;;;;;;22.52;52.70;102117.63;4856555;28;120398;-79
2022/08/30 08:12:14;;;;;;;2.33;1.50;;;;;;;22.55;52.46;102125.78;4934514;28;121315;-81
2022/08/30 08:14:40;;;;;;;2.45;1.33;;;;;;;22.52;52.67;102124.00;4946263;28;121891;-79
2022/08/30 08:17:06;;;;;;;2.28;1.13;;;;;;;22.57;52.61;102133.69;4929577;28;120566;-79
2022/08/30 08:19:35;;;;;;;2.28;1.55;;;;;;;22.45;51.22;102118.84;4908929;28;122096;-79
2022/08/30 08:22:01;;;;;;;2.55;1.20;;;;;;;22.48;49.09;102128.28;4941715;28;120770;-79
2022/08/30 08:24:27;;;;;;;2.92;1.30;;;;;;;22.46;49.28;102131.56;4943492;28;120457;-79
2022/08/30 08:26:53;;;;;;;4.03;1.40;;;;;;;22.48;47.67;102128.28;4949267;28;120017;-80
2022/08/30 08:29:19;;;;;;;3.65;1.00;;;;;;;22.44;47.41;102125.72;4960958;28;122367;-79
2022/08/30 08:31:48;;;;;;;3.88;1.85;;;;;;;22.53;47.95;102125.53;4926205;28;122029;-79
2022/08/30 08:34:14;;;;;;;1.30;0.93;;;;;;;22.63;47.99;102128.88;4914438;28;122902;-79
2022/08/30 08:36:40;;;;;;;3.08;1.25;;;;;;;22.71;45.30;102134.75;4940389;28;120485;-79
2022/08/30 08:39:07;;;;;;;4.07;0.98;;;;;;;22.71;46.00;102134.75;4904806;28;123328;-79
2022/08/30 08:41:51;;;;;;;2.17;1.10;;;;;;;22.74;46.60;102128.19;4938126;28;120276;-79
2022/08/30 08:44:36;;;;;;;2.65;1.23;;;;;;;22.80;46.27;102132.53;4906387;28;120380;-79
2022/08/30 08:47:25;;;;;;;1.90;0.95;;;;;;;22.92;45.38;102133.38;4908028;28;122311;-80
2022/08/30 08:49:56;;;;;;;3.15;1.40;;;;;;;22.90;45.31;102133.88;4925600;28;124105;-79
2022/08/30 08:55:17;;;;;;;3.47;1.58;;;;;;;22.96;44.35;102153.50;4936255;28;122436;-79
2022/08/30 08:57:44;;;;;;;3.55;1.30;;;;;;;22.84;42.43;102133.09;4936892;28;120578;-79
2022/08/30 09:00:12;;;;;;;1.58;0.98;;;;;;;22.83;42.17;102151.13;4921940;28;122275;-79
2022/08/30 09:02:42;;;;;;;1.75;1.00;;;;;;;22.76;42.13;102153.63;4906340;28;122982;-78
2022/08/30 09:05:38;;;;;;;1.67;0.90;;;;;;;22.68;42.09;102153.31;4906190;28;120593;-79
2022/08/30 09:08:07;;;;;;;4.13;1.10;;;;;;;22.67;42.77;102155.34;4918645;28;122167;-79
2022/08/30 09:10:34;;;;;;;2.28;1.10;;;;;;;22.68;42.28;102147.72;4888635;28;123476;-79
2022/08/30 09:13:00;;;;;;;1.77;1.13;;;;;;;22.71;42.08;102157.13;4909219;28;120643;-79
2022/08/30 09:15:29;;;;;;;2.92;0.95;;;;;;;22.74;41.95;102156.16;4923229;28;121161;-80
2022/08/30 09:17:59;;;;;;;3.20;1.20;;;;;;;22.77;41.25;102155.16;4904314;28;121794;-79
2022/08/30 09:20:32;;;;;;;1.83;1.15;;;;;;;22.78;41.21;102160.25;4921846;28;122649;-79
2022/08/30 09:23:09;;;;;;;2.00;1.17;;;;;;;22.76;40.86;102151.59;4946647;28;120402;-79
2022/08/30 09:25:48;;;;;;;2.15;1.00;;;;;;;22.71;40.91;102157.13;4944763;28;120839;-78
2022/08/30 09:28:14;;;;;;;1.35;0.90;;;;;;;22.71;41.24;102165.53;4941562;28;121412;-79
2022/08/30 09:31:15;;;;;;;1.77;0.88;;;;;;;22.66;41.75;102151.00;4924740;28;122071;-79
2022/08/30 09:33:53;;;;;;;2.03;1.00;;;;;;;22.63;42.00;102146.41;4924658;28;120621;-80
2022/08/30 09:36:28;;;;;;;1.98;1.10;;;;;;;22.68;41.41;102147.72;4946861;28;122858;-78
2022/08/30 09:39:06;;;;;;;3.53;1.10;;;;;;;22.74;43.25;102156.16;4925683;28;121276;-78
2022/08/30 09:41:40;;;;;;;1.85;1.08;;;;;;;22.87;42.58;102164.88;4927424;28;122252;-79
2022/08/30 09:44:15;;;;;;;2.00;1.00;;;;;;;22.90;41.38;102161.09;4908500;28;123438;-79
2022/08/30 09:46:49;;;;;;;2.80;1.00;;;;;;;22.87;40.97;102171.25;4924323;28;121172;-79
2022/08/30 09:49:33;;;;;;;1.58;1.02;;;;;;;22.90;41.50;102169.47;4910570;28;123455;-78
2022/08/30 09:52:02;;;;;;;;;;;;;;;22.92;41.37;102164.91;4957672;28;122134;-77
2022/08/30 09:54:33;;;;;;;;;;;;;;;22.99;41.07;102157.31;4925335;28;121165;-80
2022/08/30 09:56:59;;;;;;;;;;;;;;;23.07;40.95;102152.78;4963472;28;120557;-78
2022/08/30 09:59:58;;;;;;;1.70;1.08;;;;;;;23.13;41.62;102156.34;4942658;28;121043;-78
2022/08/30 10:02:36;;;;;;;1.40;1.02;;;;;;;23.30;42.33;102162.78;4940181;28;122707;-77
2022/08/30 10:05:12;;;;;;;2.35;1.10;;;;;;;23.37;41.30;102167.88;4942246;28;120972;-78
2022/08/30 10:07:59;;;;;;;2.22;1.10;;;;;;;23.37;40.51;102169.91;4926626;28;120850;-78
2022/08/30 10:10:46;;;;;;;3.42;1.10;;;;;;;23.23;41.19;102161.25;4924463;28;122666;-79
2022/08/30 10:13:34;;;;;;;2.33;1.40;;;;;;;23.19;41.43;102157.91;4941647;28;123704;-78
2022/08/30 10:16:17;;;;;;;4.25;1.20;;;;;;;23.17;41.63;102165.25;4941940;28;120489;-79
2022/08/30 10:18:58;;;;;;;2.95;1.27;;;;;;;23.25;43.54;102153.09;4941728;28;122914;-79
2022/08/30 10:21:53;;;;;;;2.25;1.02;;;;;;;23.30;41.31;102157.19;4945496;28;122134;-79
2022/08/30 10:24:24;;;;;;;5.78;1.60;;;;;;;23.22;42.24;102151.31;4922274;28;121190;-79
2022/08/30 10:27:01;;;;;;;3.88;1.42;;;;;;;23.14;41.94;102155.84;4919303;28;124327;-78
2022/08/30 10:29:34;;;;;;;2.88;1.20;;;;;;;23.17;42.01;102170.88;4905918;28;121995;-78
2022/08/30 10:32:00;;;;;;;2.17;1.20;;;;;;;23.08;41.27;102162.69;4924384;28;120825;-76
2022/08/30 10:34:34;;;;;;;1.67;1.00;;;;;;;23.13;41.92;102154.31;4943195;28;121576;-78
2022/08/30 10:37:08;;;;;;;2.03;1.10;;;;;;;23.07;41.89;102161.94;4912017;28;120274;-77
2022/08/30 10:39:42;;;;;;;1.52;1.00;;;;;;;23.05;43.48;102158.09;4905394;28;122286;-78
2022/08/30 10:42:17;;;;;;;2.63;0.90;;;;;;;23.22;42.91;102150.53;4926193;28;124973;-78
2022/08/30 10:44:48;;;;;;;2.42;1.10;;;;;;;23.45;41.51;102157.75;4943317;28;121674;-78
2022/08/30 10:47:35;;;;;;;2.40;0.90;;;;;;;23.58;42.53;102155.25;4941561;28;124346;-78
2022/08/30 10:50:06;;;;;;;3.17;1.00;;;;;;;23.76;41.53;102167.25;4921374;28;122334;-78
2022/08/30 10:52:51;;;;;;;2.80;1.10;;;;;;;23.79;41.30;102152.22;4935851;28;121221;-78
2022/08/30 10:55:21;;;;;;;2.53;1.25;;;;;;;23.87;40.62;102154.00;4941797;28;122164;-78
2022/08/30 10:57:48;;;;;;;2.42;1.02;;;;;;;23.93;39.93;102161.66;4940380;28;121701;-79
2022/08/30 11:00:27;;;;;;;1.88;1.02;;;;;;;23.70;38.58;102160.88;4949015;28;122890;-78
2022/08/30 11:03:08;;;;;;;2.33;1.00;;;;;;;23.47;39.29;102171.22;4936607;28;124036;-78
2022/08/30 11:05:36;;;;;;;2.88;1.13;;;;;;;23.24;40.80;102157.16;4922154;28;120556;-78
2022/08/30 11:08:37;;;;;;;1.52;1.20;;;;;;;23.21;40.77;102160.97;4946248;28;120907;-78
2022/08/30 11:11:05;;;;;;;1.50;1.00;;;;;;;23.25;40.91;102158.69;4939844;28;120918;-78
2022/08/30 11:13:36;;;;;;;2.03;1.05;;;;;;;23.32;40.57;102153.88;4924888;28;123683;-78
2022/08/30 11:16:07;;;;;;;2.40;1.13;;;;;;;23.26;39.84;102165.81;4925938;28;123397;-77
2022/08/30 11:18:48;;;;;;;4.95;1.23;;;;;;;23.18;40.79;102142.38;4910709;28;120738;-77
2022/08/30 11:21:35;;;;;;;1.40;0.90;;;;;;;23.28;41.89;102135.28;4941099;28;122105;-77
2022/08/30 11:24:00;;;;;;;3.05;1.08;;;;;;;23.48;42.60;102145.53;4956070;28;123605;-77
2022/08/30 11:26:47;;;;;;;4.82;1.15;;;;;;;23.61;39.91;102158.28;4908169;28;121492;-78
2022/08/30 11:29:25;;;;;;;1.48;0.88;;;;;;;23.62;39.58;102154.97;4924105;28;121350;-79
2022/08/30 11:31:52;;;;;;;2.20;0.90;;;;;;;23.67;39.66;102147.88;4943569;28;124230;-77
2022/08/30 11:34:45;;;;;;;1.35;0.90;;;;;;;23.84;41.83;102148.66;4923237;28;121617;-77